createdAt,value
2023-04-07T00:00:32.507Z,41.74
2023-04-07T00:01:32.624Z,40.96
2023-04-07T00:02:32.561Z,40.88
2023-04-07T00:03:32.605Z,41.24
2023-04-07T00:04:32.726Z,41.21
2023-04-07T00:05:32.594Z,40.86
2023-04-07T00:06:32.529Z,40.31
2023-04-07T00:07:33.872Z,40.21
2023-04-07T00:08:32.563Z,40.18
2023-04-07T00:09:32.523Z,39.88
2023-04-07T00:10:32.544Z,39.71
2023-04-07T00:11:32.494Z,40.01
2023-04-07T00:12:32.484Z,39.85
2023-04-07T00:13:33.065Z,40.00
2023-04-07T00:14:32.588Z,40.12
2023-04-07T00:15:32.504Z,40.23
2023-04-07T00:16:32.507Z,40.00
2023-04-07T00:17:32.601Z,40.31
2023-04-07T00:18:32.495Z,41.18
2023-04-07T00:19:32.457Z,42.71
2023-04-07T00:20:32.426Z,41.61
2023-04-07T00:21:32.460Z,41.53
2023-04-07T00:22:32.417Z,41.32
2023-04-07T00:23:33.088Z,41.19
2023-04-07T00:24:34.579Z,40.76
2023-04-07T00:25:32.573Z,40.97
2023-04-07T00:26:32.432Z,41.08
2023-04-07T00:27:32.491Z,40.93
2023-04-07T00:28:32.469Z,40.79
2023-04-07T00:29:32.492Z,41.26
2023-04-07T00:30:32.561Z,41.28
2023-04-07T00:31:32.585Z,40.95
2023-04-07T00:32:33.651Z,41.60
2023-04-07T00:33:32.564Z,41.75
2023-04-07T00:34:32.609Z,41.81
2023-04-07T00:35:32.576Z,42.97
2023-04-07T00:36:32.563Z,44.37
2023-04-07T00:37:32.529Z,44.40
2023-04-07T00:38:32.712Z,43.96
2023-04-07T00:39:33.040Z,43.62
2023-04-07T00:40:32.536Z,43.17
2023-04-07T00:41:32.512Z,42.78
2023-04-07T00:42:32.504Z,42.50
2023-04-07T00:43:32.497Z,42.30
2023-04-07T00:44:32.506Z,42.01
2023-04-07T00:45:32.481Z,41.61
2023-04-07T00:46:32.452Z,40.98
2023-04-07T00:47:32.482Z,40.89
2023-04-07T00:48:32.441Z,40.66
2023-04-07T00:49:32.450Z,40.27
2023-04-07T00:50:32.424Z,40.23
2023-04-07T00:51:32.451Z,40.76
2023-04-07T00:52:32.451Z,40.97
2023-04-07T00:53:32.424Z,40.65
2023-04-07T00:54:32.454Z,41.53
2023-04-07T00:55:32.421Z,41.33
2023-04-07T00:56:32.429Z,41.15
2023-04-07T00:57:32.391Z,41.13
2023-04-07T00:58:32.368Z,40.76
2023-04-07T00:59:32.388Z,40.61
2023-04-07T01:00:32.394Z,40.28
2023-04-07T01:01:32.587Z,40.49
2023-04-07T01:02:32.561Z,40.37
2023-04-07T01:03:32.697Z,40.31
2023-04-07T01:04:32.552Z,40.27
2023-04-07T01:05:32.332Z,40.53
2023-04-07T01:06:32.367Z,40.89
2023-04-07T01:07:32.328Z,40.96
2023-04-07T01:08:32.352Z,41.04
2023-04-07T01:09:32.306Z,41.04
2023-04-07T01:10:33.092Z,41.16
2023-04-07T01:11:32.304Z,41.71
2023-04-07T01:12:32.270Z,42.16
2023-04-07T01:13:32.294Z,42.38
2023-04-07T01:14:32.306Z,42.35
2023-04-07T01:15:32.274Z,41.73
2023-04-07T01:16:32.348Z,41.46
2023-04-07T01:17:32.272Z,41.67
2023-04-07T01:18:32.220Z,42.04
2023-04-07T01:19:32.246Z,42.27
2023-04-07T01:20:32.253Z,42.42
2023-04-07T01:21:32.219Z,43.28
2023-04-07T01:22:32.250Z,43.65
2023-04-07T01:23:32.225Z,43.13
2023-04-07T01:24:32.229Z,43.51
2023-04-07T01:25:32.218Z,43.28
2023-04-07T01:26:32.233Z,43.38
2023-04-07T01:27:32.204Z,44.06
2023-04-07T01:28:35.063Z,44.18
2023-04-07T01:29:32.164Z,44.01
2023-04-07T01:30:32.200Z,44.11
2023-04-07T01:31:32.230Z,43.95
2023-04-07T01:32:32.185Z,45.08
2023-04-07T01:33:32.152Z,45.96
2023-04-07T01:34:32.163Z,45.98
2023-04-07T01:35:32.186Z,46.29
2023-04-07T01:36:32.234Z,45.83
2023-04-07T01:37:34.055Z,46.63
2023-04-07T01:38:33.102Z,45.68
2023-04-07T01:39:33.072Z,45.54
2023-04-07T01:40:33.552Z,45.40
2023-04-07T01:41:32.090Z,45.41
2023-04-07T01:42:32.052Z,45.14
2023-04-07T01:43:32.084Z,43.63
2023-04-07T01:44:32.113Z,42.99
2023-04-07T01:45:32.117Z,42.74
2023-04-07T01:46:32.108Z,41.99
2023-04-07T01:47:32.122Z,42.02
2023-04-07T01:48:32.072Z,42.16
2023-04-07T01:49:32.034Z,42.47
2023-04-07T01:50:32.165Z,42.73
2023-04-07T01:51:32.174Z,43.22
2023-04-07T01:52:37.156Z,43.46
2023-04-07T01:53:32.140Z,43.07
2023-04-07T01:54:32.076Z,43.10
2023-04-07T01:55:32.141Z,43.16
2023-04-07T01:56:32.071Z,43.07
2023-04-07T01:57:32.116Z,44.39
2023-04-07T01:58:32.158Z,46.51
2023-04-07T01:59:32.164Z,44.65
2023-04-07T02:00:32.082Z,43.56
2023-04-07T02:01:32.209Z,43.28
2023-04-07T02:02:32.233Z,43.65
2023-04-07T02:03:32.113Z,43.96
2023-04-07T02:04:32.132Z,44.60
2023-04-07T02:05:32.122Z,44.18
2023-04-07T02:06:32.201Z,43.97
2023-04-07T02:07:32.065Z,44.07
2023-04-07T02:08:32.348Z,45.00
2023-04-07T02:09:32.186Z,44.55
2023-04-07T02:10:32.753Z,44.27
2023-04-07T02:11:32.134Z,44.01
2023-04-07T02:12:32.200Z,43.77
2023-04-07T02:13:32.163Z,43.98
2023-04-07T02:14:32.223Z,44.60
2023-04-07T02:15:32.211Z,44.22
2023-04-07T02:16:32.398Z,43.47
2023-04-07T02:17:32.264Z,43.38
2023-04-07T02:18:32.420Z,43.32
2023-04-07T02:19:32.318Z,43.50
2023-04-07T02:20:33.111Z,43.87
2023-04-07T02:21:32.310Z,44.08
2023-04-07T02:22:32.340Z,43.94
2023-04-07T02:23:32.433Z,43.91
2023-04-07T02:24:32.516Z,43.96
2023-04-07T02:25:32.542Z,44.21
2023-04-07T02:26:34.238Z,44.14
2023-04-07T02:27:33.198Z,43.90
2023-04-07T02:28:32.498Z,44.06
2023-04-07T02:29:32.494Z,43.89
2023-04-07T02:30:32.470Z,43.57
2023-04-07T02:31:32.540Z,43.79
2023-04-07T02:32:32.493Z,43.55
2023-04-07T02:33:32.432Z,43.27
2023-04-07T02:34:33.157Z,43.72
2023-04-07T02:35:32.424Z,44.32
2023-04-07T02:36:32.504Z,44.67
2023-04-07T02:37:32.446Z,44.76
2023-04-07T02:38:33.067Z,44.64
2023-04-07T02:39:32.422Z,44.63
2023-04-07T02:40:32.387Z,44.70
2023-04-07T02:41:32.379Z,44.55
2023-04-07T02:42:32.375Z,44.70
2023-04-07T02:43:32.361Z,45.22
2023-04-07T02:44:32.399Z,46.83
2023-04-07T02:45:32.372Z,46.61
2023-04-07T02:46:32.481Z,45.41
2023-04-07T02:47:32.405Z,45.48
2023-04-07T02:48:32.374Z,45.38
2023-04-07T02:49:32.337Z,44.76
2023-04-07T02:50:33.226Z,44.03
2023-04-07T02:51:32.376Z,43.72
2023-04-07T02:52:32.376Z,43.43
2023-04-07T02:53:32.411Z,43.27
2023-04-07T02:54:32.266Z,42.61
2023-04-07T02:55:32.283Z,42.26
2023-04-07T02:56:32.317Z,42.40
2023-04-07T02:57:33.134Z,42.67
2023-04-07T02:58:32.247Z,42.36
2023-04-07T02:59:32.260Z,42.19
2023-04-07T03:00:32.292Z,41.95
2023-04-07T03:01:32.381Z,42.11
2023-04-07T03:02:32.475Z,42.34
2023-04-07T03:03:32.325Z,43.66
2023-04-07T03:04:32.259Z,43.33
2023-04-07T03:05:32.223Z,43.88
2023-04-07T03:06:32.252Z,42.67
2023-04-07T03:07:32.250Z,42.06
2023-04-07T03:08:33.114Z,41.32
2023-04-07T03:09:32.191Z,41.60
2023-04-07T03:10:32.158Z,41.81
2023-04-07T03:11:32.172Z,42.02
2023-04-07T03:12:32.143Z,41.98
2023-04-07T03:13:32.181Z,42.06
2023-04-07T03:14:32.140Z,42.56
2023-04-07T03:15:32.144Z,44.33
2023-04-07T03:16:32.221Z,43.85
2023-04-07T03:17:32.223Z,44.07
2023-04-07T03:18:32.112Z,44.71
2023-04-07T03:19:32.113Z,44.33
2023-04-07T03:20:32.604Z,44.09
2023-04-07T03:21:32.215Z,43.78
2023-04-07T03:22:32.095Z,43.41
2023-04-07T03:23:32.093Z,43.38
2023-04-07T03:24:32.121Z,43.88
2023-04-07T03:25:32.126Z,43.96
2023-04-07T03:26:32.149Z,43.40
2023-04-07T03:27:32.166Z,43.03
2023-04-07T03:28:32.187Z,43.02
2023-04-07T03:29:32.207Z,43.39
2023-04-07T03:30:32.388Z,43.63
2023-04-07T03:31:32.244Z,43.88
2023-04-07T03:32:32.439Z,43.98
2023-04-07T03:33:32.285Z,43.74
2023-04-07T03:34:32.305Z,43.46
2023-04-07T03:35:32.716Z,44.16
2023-04-07T03:36:32.383Z,43.74
2023-04-07T03:37:33.131Z,43.75
2023-04-07T03:38:32.485Z,43.84
2023-04-07T03:39:32.550Z,43.74
2023-04-07T03:40:32.567Z,43.84
2023-04-07T03:41:32.593Z,43.55
2023-04-07T03:42:32.660Z,43.50
2023-04-07T03:43:32.622Z,44.12
2023-04-07T03:44:32.698Z,43.35
2023-04-07T03:45:32.662Z,43.18
2023-04-07T03:46:33.618Z,42.83
2023-04-07T03:47:32.709Z,42.81
2023-04-07T03:48:32.670Z,42.78
2023-04-07T03:49:32.757Z,42.35
2023-04-07T03:50:32.708Z,42.35
2023-04-07T03:51:32.783Z,42.47
2023-04-07T03:52:35.605Z,42.42
2023-04-07T03:53:32.764Z,42.44
2023-04-07T03:54:32.783Z,42.37
2023-04-07T03:55:32.787Z,42.30
2023-04-07T03:56:33.644Z,42.45
2023-04-07T03:57:32.727Z,42.69
2023-04-07T03:58:32.692Z,43.02
2023-04-07T03:59:32.721Z,43.02
2023-04-07T04:00:32.753Z,43.10
2023-04-07T04:01:32.733Z,42.82
2023-04-07T04:02:32.772Z,43.01
2023-04-07T04:03:32.822Z,42.87
2023-04-07T04:04:32.712Z,43.04
2023-04-07T04:05:32.669Z,43.09
2023-04-07T04:06:32.668Z,42.81
2023-04-07T04:07:32.711Z,42.66
2023-04-07T04:08:32.679Z,43.00
2023-04-07T04:09:32.660Z,44.09
2023-04-07T04:10:32.616Z,43.83
2023-04-07T04:11:32.649Z,43.67
2023-04-07T04:12:32.801Z,43.75
2023-04-07T04:13:32.616Z,43.66
2023-04-07T04:14:32.674Z,43.61
2023-04-07T04:15:32.633Z,43.40
2023-04-07T04:16:32.672Z,43.42
2023-04-07T04:17:32.636Z,43.46
2023-04-07T04:18:32.617Z,43.09
2023-04-07T04:19:32.614Z,42.71
2023-04-07T04:20:32.602Z,42.56
2023-04-07T04:21:32.621Z,42.62
2023-04-07T04:22:32.543Z,42.35
2023-04-07T04:23:32.616Z,42.12
2023-04-07T04:24:32.587Z,42.22
2023-04-07T04:25:32.538Z,42.25
2023-04-07T04:26:32.515Z,42.40
2023-04-07T04:27:32.557Z,42.54
2023-04-07T04:28:32.544Z,42.63
2023-04-07T04:29:33.024Z,42.66
2023-04-07T04:30:32.519Z,42.57
2023-04-07T04:31:32.582Z,42.64
2023-04-07T04:32:32.570Z,42.58
2023-04-07T04:33:32.539Z,42.71
2023-04-07T04:34:32.490Z,42.85
2023-04-07T04:35:32.477Z,42.89
2023-04-07T04:36:32.543Z,42.94
2023-04-07T04:37:32.459Z,43.11
2023-04-07T04:38:32.480Z,43.17
2023-04-07T04:39:32.491Z,43.32
2023-04-07T04:40:32.460Z,43.72
2023-04-07T04:41:32.520Z,43.77
2023-04-07T04:42:32.499Z,43.74
2023-04-07T04:43:32.469Z,43.87
2023-04-07T04:44:32.442Z,43.96
2023-04-07T04:45:32.392Z,44.01
2023-04-07T04:46:32.468Z,44.24
2023-04-07T04:47:32.437Z,44.38
2023-04-07T04:48:32.394Z,44.47
2023-04-07T04:49:32.361Z,44.53
2023-04-07T04:50:32.429Z,44.66
2023-04-07T04:51:32.412Z,45.08
2023-04-07T04:52:32.630Z,45.60
2023-04-07T04:53:32.551Z,45.47
2023-04-07T04:54:32.423Z,44.99
2023-04-07T04:55:32.487Z,44.56
2023-04-07T04:56:32.438Z,44.39
2023-04-07T04:57:32.518Z,44.43
2023-04-07T04:58:33.103Z,44.67
2023-04-07T04:59:32.562Z,44.80
2023-04-07T05:00:32.675Z,44.77
2023-04-07T05:01:33.649Z,44.66
2023-04-07T05:02:32.912Z,44.51
2023-04-07T05:03:33.097Z,44.50
2023-04-07T05:04:33.123Z,44.85
2023-04-07T05:05:33.665Z,44.99
2023-04-07T05:06:32.900Z,44.98
2023-04-07T05:07:32.990Z,44.96
2023-04-07T05:08:32.956Z,45.03
2023-04-07T05:09:33.029Z,45.08
2023-04-07T05:10:32.973Z,44.86
2023-04-07T05:11:32.997Z,44.69
2023-04-07T05:12:32.954Z,44.59
2023-04-07T05:13:33.021Z,44.39
2023-04-07T05:14:32.998Z,43.96
2023-04-07T05:15:33.136Z,43.62
2023-04-07T05:16:32.977Z,43.45
2023-04-07T05:17:33.018Z,43.22
2023-04-07T05:18:33.042Z,42.80
2023-04-07T05:19:33.086Z,42.79
2023-04-07T05:20:33.178Z,42.70
2023-04-07T05:21:33.122Z,42.58
2023-04-07T05:22:33.139Z,42.34
2023-04-07T05:23:33.209Z,42.11
2023-04-07T05:24:34.152Z,42.26
2023-04-07T05:25:33.268Z,43.85
2023-04-07T05:26:33.255Z,46.74
2023-04-07T05:27:33.238Z,48.30
2023-04-07T05:28:33.302Z,49.02
2023-04-07T05:29:33.372Z,49.28
2023-04-07T05:30:33.363Z,47.80
2023-04-07T05:31:33.492Z,46.88
2023-04-07T05:32:33.442Z,45.82
2023-04-07T05:33:33.447Z,45.80
2023-04-07T05:34:33.458Z,44.60
2023-04-07T05:35:33.472Z,43.72
2023-04-07T05:36:33.472Z,43.46
2023-04-07T05:37:33.531Z,43.36
2023-04-07T05:38:33.625Z,43.01
2023-04-07T05:39:33.566Z,43.19
2023-04-07T05:40:35.047Z,42.63
2023-04-07T05:41:33.586Z,42.82
2023-04-07T05:42:33.560Z,43.02
2023-04-07T05:43:33.563Z,42.31
2023-04-07T05:44:33.595Z,42.27
2023-04-07T05:45:33.681Z,42.26
2023-04-07T05:46:33.523Z,42.65
2023-04-07T05:47:33.702Z,42.58
2023-04-07T05:48:33.502Z,42.24
2023-04-07T05:49:33.566Z,42.19
2023-04-07T05:50:33.525Z,42.21
2023-04-07T05:51:33.508Z,42.00
2023-04-07T05:52:33.602Z,42.28
2023-04-07T05:53:33.499Z,42.67
2023-04-07T05:54:33.484Z,42.94
2023-04-07T05:55:33.514Z,43.88
2023-04-07T05:56:33.455Z,43.04
2023-04-07T05:57:33.478Z,43.15
2023-04-07T05:58:33.492Z,42.84
2023-04-07T05:59:33.546Z,42.63
2023-04-07T06:00:33.440Z,43.47
2023-04-07T06:01:33.416Z,43.92
2023-04-07T06:02:33.515Z,44.27
2023-04-07T06:03:33.741Z,44.40
2023-04-07T06:04:33.411Z,44.28
2023-04-07T06:05:33.418Z,44.72
2023-04-07T06:06:33.393Z,45.18
2023-04-07T06:07:34.125Z,44.81
2023-04-07T06:08:33.375Z,45.34
2023-04-07T06:09:33.342Z,44.55
2023-04-07T06:10:33.387Z,44.53
2023-04-07T06:11:33.378Z,43.78
2023-04-07T06:12:33.405Z,43.67
2023-04-07T06:13:33.636Z,43.62
2023-04-07T06:14:33.341Z,44.46
2023-04-07T06:15:33.345Z,43.82
2023-04-07T06:16:33.360Z,43.32
2023-04-07T06:17:34.171Z,43.28
2023-04-07T06:18:33.309Z,43.05
2023-04-07T06:19:34.195Z,43.08
2023-04-07T06:20:33.308Z,43.40
2023-04-07T06:21:33.314Z,43.12
2023-04-07T06:22:33.294Z,43.03
2023-04-07T06:23:33.354Z,42.73
2023-04-07T06:24:33.354Z,42.70
2023-04-07T06:25:33.294Z,42.44
2023-04-07T06:26:33.249Z,43.12
2023-04-07T06:27:33.241Z,43.42
2023-04-07T06:28:33.233Z,44.70
2023-04-07T06:29:33.259Z,43.56
2023-04-07T06:30:33.347Z,42.59
2023-04-07T06:31:33.242Z,43.23
2023-04-07T06:32:33.270Z,43.65
2023-04-07T06:33:33.175Z,43.80
2023-04-07T06:34:33.192Z,43.62
2023-04-07T06:35:33.161Z,43.36
2023-04-07T06:36:33.243Z,43.14
2023-04-07T06:37:33.145Z,43.75
2023-04-07T06:38:34.193Z,43.33
2023-04-07T06:39:33.179Z,43.42
2023-04-07T06:40:33.147Z,43.46
2023-04-07T06:41:33.172Z,43.69
2023-04-07T06:42:33.140Z,44.65
2023-04-07T06:43:33.165Z,43.79
2023-04-07T06:44:33.121Z,43.76
2023-04-07T06:45:33.136Z,43.78
2023-04-07T06:46:33.131Z,43.54
2023-04-07T06:47:33.118Z,43.18
2023-04-07T06:48:33.219Z,42.26
2023-04-07T06:49:34.267Z,42.22
2023-04-07T06:50:33.287Z,42.01
2023-04-07T06:51:34.130Z,42.27
2023-04-07T06:52:33.429Z,41.96
2023-04-07T06:53:33.394Z,42.12
2023-04-07T06:54:33.415Z,43.36
2023-04-07T06:55:33.479Z,42.85
2023-04-07T06:56:34.163Z,42.55
2023-04-07T06:57:33.516Z,42.06
2023-04-07T06:58:36.203Z,41.18
2023-04-07T06:59:33.554Z,40.75
2023-04-07T07:00:34.142Z,41.63
2023-04-07T07:01:33.647Z,41.02
2023-04-07T07:02:33.667Z,41.35
2023-04-07T07:03:33.596Z,41.06
2023-04-07T07:04:33.699Z,40.82
2023-04-07T07:05:33.576Z,40.57
2023-04-07T07:06:33.530Z,40.45
2023-04-07T07:07:33.497Z,39.97
2023-04-07T07:08:33.567Z,39.97
2023-04-07T07:09:33.534Z,39.90
2023-04-07T07:10:33.558Z,39.51
2023-04-07T07:11:33.472Z,39.34
2023-04-07T07:12:34.159Z,40.11
2023-04-07T07:13:33.507Z,39.99
2023-04-07T07:14:34.197Z,40.29
2023-04-07T07:15:33.620Z,40.29
2023-04-07T07:16:34.176Z,39.33
2023-04-07T07:17:33.488Z,39.17
2023-04-07T07:18:33.452Z,39.16
2023-04-07T07:19:33.427Z,38.97
2023-04-07T07:20:33.488Z,38.95
2023-04-07T07:21:33.419Z,39.24
2023-04-07T07:22:33.427Z,39.35
2023-04-07T07:23:33.498Z,38.96
2023-04-07T07:24:33.469Z,38.65
2023-04-07T07:25:33.685Z,38.44
2023-04-07T07:26:34.211Z,38.56
2023-04-07T07:27:33.454Z,38.63
2023-04-07T07:28:34.151Z,37.91
2023-04-07T07:29:33.401Z,37.38
2023-04-07T07:30:33.367Z,37.04
2023-04-07T07:31:33.385Z,37.22
2023-04-07T07:32:33.404Z,37.12
2023-04-07T07:33:33.370Z,37.18
2023-04-07T07:34:33.434Z,37.00
2023-04-07T07:35:33.306Z,36.65
2023-04-07T07:36:33.788Z,36.59
2023-04-07T07:37:33.436Z,36.45
2023-04-07T07:38:35.156Z,36.45
2023-04-07T07:39:33.375Z,36.48
2023-04-07T07:40:38.156Z,36.54
2023-04-07T07:41:33.279Z,36.21
2023-04-07T07:42:33.284Z,35.82
2023-04-07T07:43:33.346Z,35.57
2023-04-07T07:44:33.269Z,35.21
2023-04-07T07:45:33.765Z,35.35
2023-04-07T07:46:33.258Z,36.02
2023-04-07T07:47:33.309Z,35.86
2023-04-07T07:48:33.356Z,36.74
2023-04-07T07:49:33.222Z,36.31
2023-04-07T07:50:33.292Z,36.17
2023-04-07T07:51:33.251Z,36.70
2023-04-07T07:52:33.237Z,36.72
2023-04-07T07:53:33.341Z,36.54
2023-04-07T07:54:33.269Z,36.80
2023-04-07T07:55:34.192Z,37.37
2023-04-07T07:56:33.349Z,37.34
2023-04-07T07:57:34.185Z,36.08
2023-04-07T07:58:33.385Z,36.10
2023-04-07T07:59:33.558Z,36.49
2023-04-07T08:00:33.498Z,36.95
2023-04-07T08:01:33.590Z,37.13
2023-04-07T08:02:33.653Z,36.86
2023-04-07T08:03:33.763Z,36.39
2023-04-07T08:04:33.710Z,36.39
2023-04-07T08:05:34.768Z,35.96
2023-04-07T08:06:33.723Z,35.91
2023-04-07T08:07:33.770Z,35.84
2023-04-07T08:08:33.740Z,35.77
2023-04-07T08:09:33.811Z,35.34
2023-04-07T08:10:33.798Z,35.42
2023-04-07T08:11:33.786Z,34.99
2023-04-07T08:12:33.798Z,34.89
2023-04-07T08:13:33.863Z,34.94
2023-04-07T08:14:33.959Z,35.29
2023-04-07T08:15:33.953Z,35.52
2023-04-07T08:16:34.067Z,35.79
2023-04-07T08:17:34.067Z,35.78
2023-04-07T08:18:34.054Z,35.66
2023-04-07T08:19:34.746Z,35.35
2023-04-07T08:20:34.196Z,35.29
2023-04-07T08:21:34.169Z,35.36
2023-04-07T08:22:34.207Z,35.30
2023-04-07T08:23:34.218Z,34.84
2023-04-07T08:24:34.413Z,34.64
2023-04-07T08:25:34.306Z,34.76
2023-04-07T08:26:34.307Z,34.79
2023-04-07T08:27:34.345Z,34.69
2023-04-07T08:28:34.400Z,34.37
2023-04-07T08:29:35.176Z,34.27
2023-04-07T08:30:34.523Z,33.98
2023-04-07T08:31:34.565Z,33.80
2023-04-07T08:32:34.617Z,33.58
2023-04-07T08:33:34.801Z,33.48
2023-04-07T08:34:34.765Z,33.48
2023-04-07T08:35:34.713Z,33.36
2023-04-07T08:36:35.740Z,33.71
2023-04-07T08:37:34.772Z,33.98
2023-04-07T08:38:34.806Z,33.98
2023-04-07T08:39:34.862Z,33.70
2023-04-07T08:40:34.895Z,33.59
2023-04-07T08:41:34.904Z,33.63
2023-04-07T08:42:34.979Z,33.54
2023-04-07T08:43:34.950Z,33.52
2023-04-07T08:44:35.006Z,33.49
2023-04-07T08:45:34.999Z,33.41
2023-04-07T08:46:34.996Z,33.18
2023-04-07T08:47:35.080Z,33.16
2023-04-07T08:48:35.061Z,32.88
2023-04-07T08:49:35.092Z,32.76
2023-04-07T08:50:35.245Z,32.67
2023-04-07T08:51:35.149Z,32.21
2023-04-07T08:52:35.188Z,32.29
2023-04-07T08:53:35.155Z,32.31
2023-04-07T08:54:35.192Z,31.89
2023-04-07T08:55:35.187Z,31.37
2023-04-07T08:56:38.179Z,30.92
2023-04-07T08:57:35.204Z,30.70
2023-04-07T08:58:35.198Z,30.71
2023-04-07T08:59:35.180Z,30.65
2023-04-07T09:00:35.839Z,30.23
2023-04-07T09:01:35.615Z,30.19
2023-04-07T09:02:35.565Z,30.13
2023-04-07T09:03:35.270Z,30.25
2023-04-07T09:04:35.157Z,30.75
2023-04-07T09:05:35.121Z,30.83
2023-04-07T09:06:35.129Z,31.00
2023-04-07T09:07:35.083Z,31.29
2023-04-07T09:08:35.135Z,31.37
2023-04-07T09:09:35.115Z,31.41
2023-04-07T09:10:35.095Z,31.13
2023-04-07T09:11:35.212Z,31.00
2023-04-07T09:12:35.103Z,31.46
2023-04-07T09:13:35.063Z,31.24
2023-04-07T09:14:35.011Z,30.66
2023-04-07T09:15:36.704Z,31.72
2023-04-07T09:16:35.055Z,31.32
2023-04-07T09:17:35.082Z,31.52
2023-04-07T09:18:35.004Z,31.79
2023-04-07T09:19:35.054Z,31.26
2023-04-07T09:20:35.019Z,31.45
2023-04-07T09:21:35.755Z,31.13
2023-04-07T09:22:35.031Z,31.84
2023-04-07T09:23:35.006Z,31.32
2023-04-07T09:24:34.965Z,30.86
2023-04-07T09:25:35.086Z,30.95
2023-04-07T09:26:35.706Z,31.15
2023-04-07T09:27:34.955Z,30.53
2023-04-07T09:28:35.052Z,30.48
2023-04-07T09:29:34.941Z,30.34
2023-04-07T09:30:34.967Z,30.41
2023-04-07T09:31:34.979Z,30.11
2023-04-07T09:32:34.956Z,30.19
2023-04-07T09:33:34.980Z,30.52
2023-04-07T09:34:34.945Z,30.14
2023-04-07T09:35:41.693Z,30.09
2023-04-07T09:36:34.943Z,29.17
2023-04-07T09:37:34.906Z,29.04
2023-04-07T09:38:36.719Z,29.21
2023-04-07T09:39:35.774Z,29.46
2023-04-07T09:40:34.920Z,29.87
2023-04-07T09:41:35.014Z,29.19
2023-04-07T09:42:34.913Z,28.62
2023-04-07T09:43:35.674Z,28.82
2023-04-07T09:44:34.876Z,29.50
2023-04-07T09:45:36.170Z,29.95
2023-04-07T09:46:34.859Z,29.96
2023-04-07T09:47:35.738Z,29.79
2023-04-07T09:48:34.786Z,29.59
2023-04-07T09:49:36.671Z,29.49
2023-04-07T09:50:34.835Z,29.45
2023-04-07T09:51:34.810Z,29.45
2023-04-07T09:52:34.881Z,29.66
2023-04-07T09:53:34.891Z,29.35
2023-04-07T09:54:35.262Z,29.60
2023-04-07T09:55:34.970Z,29.84
2023-04-07T09:56:35.715Z,30.40
2023-04-07T09:57:35.071Z,30.08
2023-04-07T09:58:36.778Z,29.45
2023-04-07T09:59:35.155Z,29.28
2023-04-07T10:00:35.115Z,29.11
2023-04-07T10:01:35.165Z,29.18
2023-04-07T10:02:36.807Z,28.79
2023-04-07T10:03:35.808Z,29.16
2023-04-07T10:04:35.242Z,29.07
2023-04-07T10:05:35.241Z,29.39
2023-04-07T10:06:35.283Z,29.07
2023-04-07T10:07:35.260Z,30.04
2023-04-07T10:08:35.347Z,29.78
2023-04-07T10:09:35.317Z,29.65
2023-04-07T10:10:35.389Z,29.31
2023-04-07T10:11:35.385Z,29.00
2023-04-07T10:12:35.358Z,28.71
2023-04-07T10:13:35.388Z,28.55
2023-04-07T10:14:35.451Z,28.45
2023-04-07T10:15:35.441Z,27.75
2023-04-07T10:16:35.582Z,28.35
2023-04-07T10:17:35.583Z,28.36
2023-04-07T10:18:35.631Z,28.22
2023-04-07T10:19:35.756Z,28.55
2023-04-07T10:20:35.669Z,28.70
2023-04-07T10:21:36.067Z,27.75
2023-04-07T10:22:35.732Z,28.03
2023-04-07T10:23:36.701Z,28.48
2023-04-07T10:24:35.874Z,28.99
2023-04-07T10:25:35.833Z,28.99
2023-04-07T10:26:35.884Z,28.36
2023-04-07T10:27:36.161Z,28.55
2023-04-07T10:28:35.898Z,28.70
2023-04-07T10:29:35.985Z,28.99
2023-04-07T10:30:36.902Z,29.09
2023-04-07T10:31:37.840Z,29.11
2023-04-07T10:32:36.097Z,28.46
2023-04-07T10:33:35.997Z,28.24
2023-04-07T10:34:36.011Z,28.83
2023-04-07T10:35:36.138Z,29.52
2023-04-07T10:36:36.777Z,29.66
2023-04-07T10:37:36.141Z,28.90
2023-04-07T10:38:36.190Z,28.85
2023-04-07T10:39:36.214Z,28.84
2023-04-07T10:40:36.413Z,28.67
2023-04-07T10:41:37.287Z,28.74
2023-04-07T10:42:36.415Z,28.41
2023-04-07T10:43:36.334Z,28.43
2023-04-07T10:44:36.445Z,27.87
2023-04-07T10:45:36.443Z,27.12
2023-04-07T10:46:36.579Z,28.14
2023-04-07T10:47:36.630Z,28.32
2023-04-07T10:48:36.491Z,28.20
2023-04-07T10:49:36.516Z,27.73
2023-04-07T10:50:37.318Z,27.57
2023-04-07T10:51:36.587Z,27.65
2023-04-07T10:52:36.697Z,27.74
2023-04-07T10:53:36.671Z,27.68
2023-04-07T10:54:36.691Z,28.25
2023-04-07T10:55:36.722Z,28.58
2023-04-07T10:56:36.699Z,28.36
2023-04-07T10:57:36.751Z,28.39
2023-04-07T10:58:36.764Z,28.63
2023-04-07T10:59:36.835Z,29.45
2023-04-07T11:00:37.802Z,29.13
2023-04-07T11:01:36.975Z,28.72
2023-04-07T11:02:37.164Z,28.73
2023-04-07T11:03:37.061Z,28.40
2023-04-07T11:04:37.101Z,28.13
2023-04-07T11:05:36.999Z,28.34
2023-04-07T11:06:37.048Z,28.41
2023-04-07T11:07:37.156Z,28.11
2023-04-07T11:08:37.095Z,27.81
2023-04-07T11:09:37.126Z,27.90
2023-04-07T11:10:37.296Z,27.73
2023-04-07T11:11:37.220Z,28.11
2023-04-07T11:12:37.260Z,28.02
2023-04-07T11:13:37.299Z,27.63
2023-04-07T11:14:37.358Z,27.43
2023-04-07T11:15:40.236Z,26.93
2023-04-07T11:16:38.208Z,26.59
2023-04-07T11:17:37.365Z,26.56
2023-04-07T11:18:37.307Z,26.41
2023-04-07T11:19:37.277Z,26.79
2023-04-07T11:20:37.388Z,26.96
2023-04-07T11:21:37.386Z,27.27
2023-04-07T11:22:37.282Z,26.43
2023-04-07T11:23:37.248Z,26.46
2023-04-07T11:24:37.279Z,26.65
2023-04-07T11:25:37.269Z,26.82
2023-04-07T11:26:38.322Z,26.93
2023-04-07T11:27:37.225Z,26.96
2023-04-07T11:28:37.307Z,26.96
2023-04-07T11:29:37.218Z,27.01
2023-04-07T11:30:37.225Z,26.95
2023-04-07T11:31:37.231Z,26.54
2023-04-07T11:32:37.230Z,26.50
2023-04-07T11:33:37.179Z,26.28
2023-04-07T11:34:37.203Z,26.23
2023-04-07T11:35:37.190Z,25.92
2023-04-07T11:36:37.191Z,25.79
2023-04-07T11:37:37.165Z,25.81
2023-04-07T11:38:37.175Z,25.97
2023-04-07T11:39:37.137Z,26.27
2023-04-07T11:40:37.276Z,26.51
2023-04-07T11:41:37.135Z,26.47
2023-04-07T11:42:37.150Z,26.56
2023-04-07T11:43:37.110Z,26.13
2023-04-07T11:44:37.116Z,25.33
2023-04-07T11:45:37.111Z,24.85
2023-04-07T11:46:37.173Z,24.78
2023-04-07T11:47:37.185Z,25.04
2023-04-07T11:48:37.720Z,24.96
2023-04-07T11:49:37.078Z,24.64
2023-04-07T11:50:37.147Z,24.51
2023-04-07T11:51:37.741Z,24.30
2023-04-07T11:52:37.181Z,24.33
2023-04-07T11:53:37.195Z,23.95
2023-04-07T11:54:37.221Z,23.85
2023-04-07T11:55:38.724Z,24.40
2023-04-07T11:56:38.286Z,24.67
2023-04-07T11:57:37.260Z,24.56
2023-04-07T11:58:37.260Z,23.97
2023-04-07T11:59:37.266Z,24.08
2023-04-07T12:00:37.397Z,24.17
2023-04-07T12:01:37.387Z,24.22
2023-04-07T12:02:37.665Z,24.17
2023-04-07T12:03:38.545Z,24.76
2023-04-07T12:04:37.590Z,24.99
2023-04-07T12:05:37.579Z,24.34
2023-04-07T12:06:37.557Z,24.35
2023-04-07T12:07:37.525Z,24.26
2023-04-07T12:08:37.526Z,24.45
2023-04-07T12:09:37.713Z,24.74
2023-04-07T12:10:37.565Z,24.73
2023-04-07T12:11:40.249Z,24.79
2023-04-07T12:12:37.599Z,24.70
2023-04-07T12:13:37.570Z,24.59
2023-04-07T12:14:37.539Z,24.65
2023-04-07T12:15:37.587Z,25.09
2023-04-07T12:16:37.834Z,25.21
2023-04-07T12:17:37.574Z,25.04
2023-04-07T12:18:37.565Z,25.00
2023-04-07T12:19:37.580Z,25.25
2023-04-07T12:20:37.832Z,25.14
2023-04-07T12:21:37.510Z,24.98
2023-04-07T12:22:37.480Z,25.02
2023-04-07T12:23:37.541Z,25.16
2023-04-07T12:24:37.599Z,24.96
2023-04-07T12:25:37.543Z,24.97
2023-04-07T12:26:37.555Z,25.12
2023-04-07T12:27:43.224Z,25.02
2023-04-07T12:28:38.500Z,24.80
2023-04-07T12:29:37.457Z,24.70
2023-04-07T12:30:37.549Z,24.45
2023-04-07T12:31:37.540Z,24.63
2023-04-07T12:32:37.490Z,24.64
2023-04-07T12:33:37.428Z,24.70
2023-04-07T12:34:37.525Z,24.67
2023-04-07T12:35:37.457Z,25.19
2023-04-07T12:36:37.834Z,25.39
2023-04-07T12:37:37.408Z,24.76
2023-04-07T12:38:37.439Z,24.22
2023-04-07T12:39:37.411Z,24.29
2023-04-07T12:40:37.408Z,24.19
2023-04-07T12:41:37.377Z,24.27
2023-04-07T12:42:37.507Z,24.57
2023-04-07T12:43:37.479Z,24.51
2023-04-07T12:44:37.452Z,24.33
2023-04-07T12:45:37.405Z,24.18
2023-04-07T12:46:37.744Z,23.94
2023-04-07T12:47:37.433Z,23.97
2023-04-07T12:48:37.450Z,24.60
2023-04-07T12:49:37.416Z,24.21
2023-04-07T12:50:37.601Z,24.06
2023-04-07T12:51:37.573Z,24.11
2023-04-07T12:52:40.346Z,23.99